sensor_id;sensor_type;location;lat;lon;timestamp;P1;P2;P0
72908;PMS5003;61051;62.624;17.950;2022-08-19T00:01:55;8;8;
72908;PMS5003;61051;62.624;17.950;2022-08-19T00:04:26;7;5;
72908;PMS5003;61051;62.624;17.950;2022-08-19T00:06:57;5;5;
72908;PMS5003;61051;62.624;17.950;2022-08-19T00:09:27;6;6;
72908;PMS5003;61051;62.624;17.950;2022-08-19T00:11:56;7;7;
72908;PMS5003;61051;62.624;17.950;2022-08-19T00:14:28;22;15;
72908;PMS5003;61051;62.624;17.950;2022-08-19T00:16:57;7;7;
72908;PMS5003;61051;62.624;17.950;2022-08-19T00:19:25;7;6;
72908;PMS5003;61051;62.624;17.950;2022-08-19T00:21:53;6;5;
72908;PMS5003;61051;62.624;17.950;2022-08-19T00:24:22;7;7;
72908;PMS5003;61051;62.624;17.950;2022-08-19T00:26:50;5;5;
72908;PMS5003;61051;62.624;17.950;2022-08-19T00:29:20;8;8;
72908;PMS5003;61051;62.624;17.950;2022-08-19T00:31:51;10;5;
72908;PMS5003;61051;62.624;17.950;2022-08-19T00:34:20;6;6;
72908;PMS5003;61051;62.624;17.950;2022-08-19T00:36:50;7;7;
72908;PMS5003;61051;62.624;17.950;2022-08-19T00:39:18;8;7;
72908;PMS5003;61051;62.624;17.950;2022-08-19T00:41:47;7;7;
72908;PMS5003;61051;62.624;17.950;2022-08-19T00:44:18;8;8;
72908;PMS5003;61051;62.624;17.950;2022-08-19T00:46:49;5;5;
72908;PMS5003;61051;62.624;17.950;2022-08-19T00:49:22;8;7;
72908;PMS5003;61051;62.624;17.950;2022-08-19T00:51:55;7;5;
72908;PMS5003;61051;62.624;17.950;2022-08-19T00:54:29;9;7;
72908;PMS5003;61051;62.624;17.950;2022-08-19T00:56:57;5;5;
72908;PMS5003;61051;62.624;17.950;2022-08-19T00:59:27;5;5;
72908;PMS5003;61051;62.624;17.950;2022-08-19T01:01:55;10;5;
72908;PMS5003;61051;62.624;17.950;2022-08-19T01:04:24;12;11;
72908;PMS5003;61051;62.624;17.950;2022-08-19T01:06:52;4;4;
72908;PMS5003;61051;62.624;17.950;2022-08-19T01:09:20;5;5;
72908;PMS5003;61051;62.624;17.950;2022-08-19T01:11:48;6;6;
72908;PMS5003;61051;62.624;17.950;2022-08-19T01:14:18;6;6;
72908;PMS5003;61051;62.624;17.950;2022-08-19T01:16:48;7;6;
72908;PMS5003;61051;62.624;17.950;2022-08-19T01:19:23;7;7;
72908;PMS5003;61051;62.624;17.950;2022-08-19T01:21:55;9;8;
72908;PMS5003;61051;62.624;17.950;2022-08-19T01:24:30;8;6;
72908;PMS5003;61051;62.624;17.950;2022-08-19T01:27:02;8;8;
72908;PMS5003;61051;62.624;17.950;2022-08-19T01:29:33;9;8;
72908;PMS5003;61051;62.624;17.950;2022-08-19T01:32:01;10;9;
72908;PMS5003;61051;62.624;17.950;2022-08-19T01:34:31;8;7;
72908;PMS5003;61051;62.624;17.950;2022-08-19T01:36:59;7;7;
72908;PMS5003;61051;62.624;17.950;2022-08-19T01:39:32;8;8;
72908;PMS5003;61051;62.624;17.950;2022-08-19T01:42:01;8;6;
72908;PMS5003;61051;62.624;17.950;2022-08-19T01:44:30;7;7;
72908;PMS5003;61051;62.624;17.950;2022-08-19T01:46:59;7;7;
72908;PMS5003;61051;62.624;17.950;2022-08-19T01:49:29;7;6;
72908;PMS5003;61051;62.624;17.950;2022-08-19T01:51:59;8;8;
72908;PMS5003;61051;62.624;17.950;2022-08-19T01:54:30;10;7;
72908;PMS5003;61051;62.624;17.950;2022-08-19T01:57:00;10;10;
72908;PMS5003;61051;62.624;17.950;2022-08-19T01:59:34;9;6;
72908;PMS5003;61051;62.624;17.950;2022-08-19T02:02:04;6;6;
72908;PMS5003;61051;62.624;17.950;2022-08-19T02:04:33;7;7;
72908;PMS5003;61051;62.624;17.950;2022-08-19T02:07:02;6;5;
72908;PMS5003;61051;62.624;17.950;2022-08-19T02:09:30;8;7;
72908;PMS5003;61051;62.624;17.950;2022-08-19T02:12:01;8;8;
72908;PMS5003;61051;62.624;17.950;2022-08-19T02:14:30;5;5;
72908;PMS5003;61051;62.624;17.950;2022-08-19T02:16:58;7;6;
72908;PMS5003;61051;62.624;17.950;2022-08-19T02:19:28;6;6;
72908;PMS5003;61051;62.624;17.950;2022-08-19T02:21:56;9;6;
72908;PMS5003;61051;62.624;17.950;2022-08-19T02:24:25;5;5;
72908;PMS5003;61051;62.624;17.950;2022-08-19T02:26:54;5;5;
72908;PMS5003;61051;62.624;17.950;2022-08-19T02:29:22;7;6;
72908;PMS5003;61051;62.624;17.950;2022-08-19T02:31:50;5;4;
72908;PMS5003;61051;62.624;17.950;2022-08-19T02:34:18;6;6;
72908;PMS5003;61051;62.624;17.950;2022-08-19T02:36:46;11;11;
72908;PMS5003;61051;62.624;17.950;2022-08-19T02:39:15;8;7;
72908;PMS5003;61051;62.624;17.950;2022-08-19T02:41:44;9;9;
72908;PMS5003;61051;62.624;17.950;2022-08-19T02:44:12;11;9;
72908;PMS5003;61051;62.624;17.950;2022-08-19T02:46:41;10;9;
72908;PMS5003;61051;62.624;17.950;2022-08-19T02:49:10;11;11;
72908;PMS5003;61051;62.624;17.950;2022-08-19T02:51:40;12;11;
72908;PMS5003;61051;62.624;17.950;2022-08-19T02:54:10;14;10;
72908;PMS5003;61051;62.624;17.950;2022-08-19T02:56:40;9;9;
72908;PMS5003;61051;62.624;17.950;2022-08-19T02:59:10;15;15;
72908;PMS5003;61051;62.624;17.950;2022-08-19T03:01:41;10;10;
72908;PMS5003;61051;62.624;17.950;2022-08-19T03:04:10;11;10;
72908;PMS5003;61051;62.624;17.950;2022-08-19T03:06:41;15;12;
72908;PMS5003;61051;62.624;17.950;2022-08-19T03:09:11;12;10;
72908;PMS5003;61051;62.624;17.950;2022-08-19T03:11:41;14;11;
72908;PMS5003;61051;62.624;17.950;2022-08-19T03:14:09;13;12;
72908;PMS5003;61051;62.624;17.950;2022-08-19T03:16:40;12;12;
72908;PMS5003;61051;62.624;17.950;2022-08-19T03:19:11;12;11;
72908;PMS5003;61051;62.624;17.950;2022-08-19T03:21:41;12;12;
72908;PMS5003;61051;62.624;17.950;2022-08-19T03:24:11;12;11;
72908;PMS5003;61051;62.624;17.950;2022-08-19T03:26:42;13;12;
72908;PMS5003;61051;62.624;17.950;2022-08-19T03:29:19;18;16;
72908;PMS5003;61051;62.624;17.950;2022-08-19T03:31:47;15;11;
72908;PMS5003;61051;62.624;17.950;2022-08-19T03:34:18;14;12;
72908;PMS5003;61051;62.624;17.950;2022-08-19T03:36:48;12;9;
72908;PMS5003;61051;62.624;17.950;2022-08-19T03:39:16;16;16;
72908;PMS5003;61051;62.624;17.950;2022-08-19T03:41:45;13;11;
72908;PMS5003;61051;62.624;17.950;2022-08-19T03:44:17;13;11;
72908;PMS5003;61051;62.624;17.950;2022-08-19T03:46:48;15;13;
72908;PMS5003;61051;62.624;17.950;2022-08-19T03:49:20;19;13;
72908;PMS5003;61051;62.624;17.950;2022-08-19T03:51:50;10;10;
72908;PMS5003;61051;62.624;17.950;2022-08-19T03:54:20;13;13;
72908;PMS5003;61051;62.624;17.950;2022-08-19T03:56:51;16;15;
72908;PMS5003;61051;62.624;17.950;2022-08-19T03:59:23;17;16;
72908;PMS5003;61051;62.624;17.950;2022-08-19T04:03:15;15;12;
72908;PMS5003;61051;62.624;17.950;2022-08-19T04:05:43;14;13;
72908;PMS5003;61051;62.624;17.950;2022-08-19T04:08:12;15;14;
72908;PMS5003;61051;62.624;17.950;2022-08-19T04:10:43;19;15;
72908;PMS5003;61051;62.624;17.950;2022-08-19T04:13:13;18;15;
72908;PMS5003;61051;62.624;17.950;2022-08-19T04:15:43;19;16;
72908;PMS5003;61051;62.624;17.950;2022-08-19T04:18:14;15;15;
72908;PMS5003;61051;62.624;17.950;2022-08-19T04:20:43;20;15;
72908;PMS5003;61051;62.624;17.950;2022-08-19T04:23:13;17;14;
72908;PMS5003;61051;62.624;17.950;2022-08-19T04:25:44;11;11;
72908;PMS5003;61051;62.624;17.950;2022-08-19T04:28:13;18;16;
72908;PMS5003;61051;62.624;17.950;2022-08-19T04:30:41;15;13;
72908;PMS5003;61051;62.624;17.950;2022-08-19T04:33:11;16;16;
72908;PMS5003;61051;62.624;17.950;2022-08-19T04:35:42;17;16;
72908;PMS5003;61051;62.624;17.950;2022-08-19T04:38:12;18;17;
72908;PMS5003;61051;62.624;17.950;2022-08-19T04:40:42;12;12;
72908;PMS5003;61051;62.624;17.950;2022-08-19T04:43:12;20;15;
72908;PMS5003;61051;62.624;17.950;2022-08-19T04:45:40;18;16;
72908;PMS5003;61051;62.624;17.950;2022-08-19T04:48:10;16;14;
72908;PMS5003;61051;62.624;17.950;2022-08-19T04:50:39;17;14;
72908;PMS5003;61051;62.624;17.950;2022-08-19T04:53:09;13;11;
72908;PMS5003;61051;62.624;17.950;2022-08-19T04:55:38;18;17;
72908;PMS5003;61051;62.624;17.950;2022-08-19T04:58:08;13;13;
72908;PMS5003;61051;62.624;17.950;2022-08-19T05:00:38;13;13;
72908;PMS5003;61051;62.624;17.950;2022-08-19T05:03:08;18;13;
72908;PMS5003;61051;62.624;17.950;2022-08-19T05:05:38;13;12;
72908;PMS5003;61051;62.624;17.950;2022-08-19T05:08:07;15;13;
72908;PMS5003;61051;62.624;17.950;2022-08-19T05:10:36;14;13;
72908;PMS5003;61051;62.624;17.950;2022-08-19T05:13:06;22;19;
72908;PMS5003;61051;62.624;17.950;2022-08-19T05:15:35;16;14;
72908;PMS5003;61051;62.624;17.950;2022-08-19T05:18:04;15;15;
72908;PMS5003;61051;62.624;17.950;2022-08-19T05:20:33;18;15;
72908;PMS5003;61051;62.624;17.950;2022-08-19T05:23:01;18;14;
72908;PMS5003;61051;62.624;17.950;2022-08-19T05:25:29;20;13;
72908;PMS5003;61051;62.624;17.950;2022-08-19T05:27:59;16;14;
72908;PMS5003;61051;62.624;17.950;2022-08-19T05:30:27;15;13;
72908;PMS5003;61051;62.624;17.950;2022-08-19T05:32:56;16;14;
72908;PMS5003;61051;62.624;17.950;2022-08-19T05:35:25;26;21;
72908;PMS5003;61051;62.624;17.950;2022-08-19T05:37:53;20;16;
72908;PMS5003;61051;62.624;17.950;2022-08-19T05:40:22;20;17;
72908;PMS5003;61051;62.624;17.950;2022-08-19T05:42:52;17;17;
72908;PMS5003;61051;62.624;17.950;2022-08-19T05:45:21;18;16;
72908;PMS5003;61051;62.624;17.950;2022-08-19T05:47:51;19;16;
72908;PMS5003;61051;62.624;17.950;2022-08-19T05:50:20;18;18;
72908;PMS5003;61051;62.624;17.950;2022-08-19T05:52:48;19;19;
72908;PMS5003;61051;62.624;17.950;2022-08-19T05:55:18;21;20;
72908;PMS5003;61051;62.624;17.950;2022-08-19T05:57:46;23;20;
72908;PMS5003;61051;62.624;17.950;2022-08-19T06:00:16;23;23;
72908;PMS5003;61051;62.624;17.950;2022-08-19T06:02:44;17;15;
72908;PMS5003;61051;62.624;17.950;2022-08-19T06:05:13;18;15;
72908;PMS5003;61051;62.624;17.950;2022-08-19T06:07:47;17;16;
72908;PMS5003;61051;62.624;17.950;2022-08-19T06:10:15;22;19;
72908;PMS5003;61051;62.624;17.950;2022-08-19T06:12:44;20;20;
72908;PMS5003;61051;62.624;17.950;2022-08-19T06:15:13;20;17;
72908;PMS5003;61051;62.624;17.950;2022-08-19T06:17:42;26;21;
72908;PMS5003;61051;62.624;17.950;2022-08-19T06:20:13;28;25;
72908;PMS5003;61051;62.624;17.950;2022-08-19T06:22:43;21;19;
72908;PMS5003;61051;62.624;17.950;2022-08-19T06:25:14;27;23;
72908;PMS5003;61051;62.624;17.950;2022-08-19T06:27:43;19;19;
72908;PMS5003;61051;62.624;17.950;2022-08-19T06:30:12;24;21;
72908;PMS5003;61051;62.624;17.950;2022-08-19T06:32:41;24;23;
72908;PMS5003;61051;62.624;17.950;2022-08-19T06:35:10;23;20;
72908;PMS5003;61051;62.624;17.950;2022-08-19T06:37:39;22;20;
72908;PMS5003;61051;62.624;17.950;2022-08-19T06:40:07;23;18;
72908;PMS5003;61051;62.624;17.950;2022-08-19T06:42:35;17;17;
72908;PMS5003;61051;62.624;17.950;2022-08-19T06:45:04;24;21;
72908;PMS5003;61051;62.624;17.950;2022-08-19T06:47:34;22;22;
72908;PMS5003;61051;62.624;17.950;2022-08-19T06:50:02;31;27;
72908;PMS5003;61051;62.624;17.950;2022-08-19T06:52:32;24;21;
72908;PMS5003;61051;62.624;17.950;2022-08-19T06:55:02;22;22;
72908;PMS5003;61051;62.624;17.950;2022-08-19T06:57:31;21;19;
72908;PMS5003;61051;62.624;17.950;2022-08-19T07:00:00;21;20;
72908;PMS5003;61051;62.624;17.950;2022-08-19T07:02:29;27;25;
72908;PMS5003;61051;62.624;17.950;2022-08-19T07:04:58;20;20;
72908;PMS5003;61051;62.624;17.950;2022-08-19T07:07:27;26;22;
72908;PMS5003;61051;62.624;17.950;2022-08-19T07:09:57;21;21;
72908;PMS5003;61051;62.624;17.950;2022-08-19T07:12:25;18;16;
72908;PMS5003;61051;62.624;17.950;2022-08-19T07:14:55;20;19;
72908;PMS5003;61051;62.624;17.950;2022-08-19T07:17:24;22;21;
72908;PMS5003;61051;62.624;17.950;2022-08-19T07:19:54;22;21;
72908;PMS5003;61051;62.624;17.950;2022-08-19T07:22:23;29;28;
72908;PMS5003;61051;62.624;17.950;2022-08-19T07:24:52;29;26;
72908;PMS5003;61051;62.624;17.950;2022-08-19T07:27:22;31;28;
72908;PMS5003;61051;62.624;17.950;2022-08-19T07:29:52;23;22;
72908;PMS5003;61051;62.624;17.950;2022-08-19T07:32:21;23;23;
72908;PMS5003;61051;62.624;17.950;2022-08-19T07:34:50;26;26;
72908;PMS5003;61051;62.624;17.950;2022-08-19T07:37:19;17;17;
72908;PMS5003;61051;62.624;17.950;2022-08-19T07:39:47;27;24;
72908;PMS5003;61051;62.624;17.950;2022-08-19T07:42:16;22;20;
72908;PMS5003;61051;62.624;17.950;2022-08-19T07:44:45;24;20;
72908;PMS5003;61051;62.624;17.950;2022-08-19T07:47:14;24;22;
72908;PMS5003;61051;62.624;17.950;2022-08-19T07:49:43;25;21;
72908;PMS5003;61051;62.624;17.950;2022-08-19T07:52:12;24;24;
72908;PMS5003;61051;62.624;17.950;2022-08-19T07:54:40;22;22;
72908;PMS5003;61051;62.624;17.950;2022-08-19T07:57:08;24;22;
72908;PMS5003;61051;62.624;17.950;2022-08-19T07:59:37;23;22;
72908;PMS5003;61051;62.624;17.950;2022-08-19T08:02:06;24;21;
72908;PMS5003;61051;62.624;17.950;2022-08-19T08:04:35;22;22;
72908;PMS5003;61051;62.624;17.950;2022-08-19T08:07:04;24;23;
72908;PMS5003;61051;62.624;17.950;2022-08-19T08:09:36;25;23;
72908;PMS5003;61051;62.624;17.950;2022-08-19T08:12:07;17;16;
72908;PMS5003;61051;62.624;17.950;2022-08-19T08:14:38;19;19;
72908;PMS5003;61051;62.624;17.950;2022-08-19T08:17:09;27;22;
72908;PMS5003;61051;62.624;17.950;2022-08-19T08:19:39;20;20;
72908;PMS5003;61051;62.624;17.950;2022-08-19T08:22:10;20;17;
72908;PMS5003;61051;62.624;17.950;2022-08-19T08:24:39;21;18;
72908;PMS5003;61051;62.624;17.950;2022-08-19T08:27:07;22;18;
72908;PMS5003;61051;62.624;17.950;2022-08-19T08:29:36;25;23;
72908;PMS5003;61051;62.624;17.950;2022-08-19T08:32:04;22;21;
72908;PMS5003;61051;62.624;17.950;2022-08-19T08:34:32;19;19;
72908;PMS5003;61051;62.624;17.950;2022-08-19T08:37:02;20;20;
72908;PMS5003;61051;62.624;17.950;2022-08-19T08:39:30;23;20;
72908;PMS5003;61051;62.624;17.950;2022-08-19T08:42:01;22;19;
72908;PMS5003;61051;62.624;17.950;2022-08-19T08:44:39;29;26;
72908;PMS5003;61051;62.624;17.950;2022-08-19T08:47:12;21;19;
72908;PMS5003;61051;62.624;17.950;2022-08-19T08:49:46;19;19;
72908;PMS5003;61051;62.624;17.950;2022-08-19T08:52:21;16;15;
72908;PMS5003;61051;62.624;17.950;2022-08-19T08:54:52;20;17;
72908;PMS5003;61051;62.624;17.950;2022-08-19T08:57:27;27;26;
72908;PMS5003;61051;62.624;17.950;2022-08-19T09:00:00;25;23;
72908;PMS5003;61051;62.624;17.950;2022-08-19T09:02:32;25;22;
72908;PMS5003;61051;62.624;17.950;2022-08-19T09:05:00;28;27;
72908;PMS5003;61051;62.624;17.950;2022-08-19T09:07:34;37;33;
72908;PMS5003;61051;62.624;17.950;2022-08-19T09:10:15;39;32;
72908;PMS5003;61051;62.624;17.950;2022-08-19T09:12:53;34;34;
72908;PMS5003;61051;62.624;17.950;2022-08-19T09:15:30;33;28;
72908;PMS5003;61051;62.624;17.950;2022-08-19T09:18:04;27;26;
72908;PMS5003;61051;62.624;17.950;2022-08-19T09:20:33;32;31;
72908;PMS5003;61051;62.624;17.950;2022-08-19T09:23:01;30;26;
72908;PMS5003;61051;62.624;17.950;2022-08-19T09:25:30;27;25;
72908;PMS5003;61051;62.624;17.950;2022-08-19T09:27:58;28;25;
72908;PMS5003;61051;62.624;17.950;2022-08-19T09:30:30;33;31;
72908;PMS5003;61051;62.624;17.950;2022-08-19T09:33:02;33;30;
72908;PMS5003;61051;62.624;17.950;2022-08-19T09:35:30;26;23;
72908;PMS5003;61051;62.624;17.950;2022-08-19T09:37:59;24;23;
72908;PMS5003;61051;62.624;17.950;2022-08-19T09:40:29;20;19;
72908;PMS5003;61051;62.624;17.950;2022-08-19T09:42:58;27;23;
72908;PMS5003;61051;62.624;17.950;2022-08-19T09:45:26;27;26;
72908;PMS5003;61051;62.624;17.950;2022-08-19T09:47:55;33;31;
72908;PMS5003;61051;62.624;17.950;2022-08-19T09:50:24;24;20;
72908;PMS5003;61051;62.624;17.950;2022-08-19T09:52:53;29;27;
72908;PMS5003;61051;62.624;17.950;2022-08-19T09:55:23;28;26;
72908;PMS5003;61051;62.624;17.950;2022-08-19T09:57:53;25;25;
72908;PMS5003;61051;62.624;17.950;2022-08-19T10:03:15;28;26;
72908;PMS5003;61051;62.624;17.950;2022-08-19T10:05:44;21;21;
72908;PMS5003;61051;62.624;17.950;2022-08-19T10:08:12;26;24;
72908;PMS5003;61051;62.624;17.950;2022-08-19T10:10:40;25;25;
72908;PMS5003;61051;62.624;17.950;2022-08-19T10:13:10;22;21;
72908;PMS5003;61051;62.624;17.950;2022-08-19T10:15:38;15;15;
72908;PMS5003;61051;62.624;17.950;2022-08-19T10:18:07;29;27;
72908;PMS5003;61051;62.624;17.950;2022-08-19T10:20:35;19;19;
72908;PMS5003;61051;62.624;17.950;2022-08-19T10:23:04;25;23;
72908;PMS5003;61051;62.624;17.950;2022-08-19T10:25:32;24;21;
72908;PMS5003;61051;62.624;17.950;2022-08-19T10:28:01;27;22;
72908;PMS5003;61051;62.624;17.950;2022-08-19T10:30:29;26;23;
72908;PMS5003;61051;62.624;17.950;2022-08-19T10:32:58;27;25;
72908;PMS5003;61051;62.624;17.950;2022-08-19T10:35:26;23;23;
72908;PMS5003;61051;62.624;17.950;2022-08-19T10:37:55;21;21;
72908;PMS5003;61051;62.624;17.950;2022-08-19T10:40:24;22;20;
72908;PMS5003;61051;62.624;17.950;2022-08-19T10:42:56;23;21;
72908;PMS5003;61051;62.624;17.950;2022-08-19T10:45:24;18;15;
72908;PMS5003;61051;62.624;17.950;2022-08-19T10:47:53;16;16;
72908;PMS5003;61051;62.624;17.950;2022-08-19T10:50:22;20;20;
72908;PMS5003;61051;62.624;17.950;2022-08-19T10:52:52;18;16;
72908;PMS5003;61051;62.624;17.950;2022-08-19T10:55:22;13;13;
72908;PMS5003;61051;62.624;17.950;2022-08-19T10:57:52;15;14;
72908;PMS5003;61051;62.624;17.950;2022-08-19T11:00:22;18;16;
72908;PMS5003;61051;62.624;17.950;2022-08-19T11:02:53;17;15;
72908;PMS5003;61051;62.624;17.950;2022-08-19T11:05:23;18;17;
72908;PMS5003;61051;62.624;17.950;2022-08-19T11:07:52;22;22;
72908;PMS5003;61051;62.624;17.950;2022-08-19T11:10:21;22;16;
72908;PMS5003;61051;62.624;17.950;2022-08-19T11:12:49;20;20;
72908;PMS5003;61051;62.624;17.950;2022-08-19T11:15:18;22;22;
72908;PMS5003;61051;62.624;17.950;2022-08-19T11:17:47;20;17;
72908;PMS5003;61051;62.624;17.950;2022-08-19T11:20:15;21;19;
72908;PMS5003;61051;62.624;17.950;2022-08-19T11:22:43;20;20;
72908;PMS5003;61051;62.624;17.950;2022-08-19T11:25:13;19;18;
72908;PMS5003;61051;62.624;17.950;2022-08-19T11:27:41;19;18;
72908;PMS5003;61051;62.624;17.950;2022-08-19T11:30:11;20;17;
72908;PMS5003;61051;62.624;17.950;2022-08-19T11:32:41;18;15;
72908;PMS5003;61051;62.624;17.950;2022-08-19T11:35:10;19;19;
72908;PMS5003;61051;62.624;17.950;2022-08-19T11:37:39;19;19;
72908;PMS5003;61051;62.624;17.950;2022-08-19T11:40:09;18;18;
72908;PMS5003;61051;62.624;17.950;2022-08-19T11:42:38;15;14;
72908;PMS5003;61051;62.624;17.950;2022-08-19T11:45:08;21;18;
72908;PMS5003;61051;62.624;17.950;2022-08-19T11:47:36;19;19;
72908;PMS5003;61051;62.624;17.950;2022-08-19T11:50:05;16;16;
72908;PMS5003;61051;62.624;17.950;2022-08-19T11:52:34;22;21;
72908;PMS5003;61051;62.624;17.950;2022-08-19T11:55:04;15;15;
72908;PMS5003;61051;62.624;17.950;2022-08-19T11:57:33;24;23;
72908;PMS5003;61051;62.624;17.950;2022-08-19T12:00:03;21;18;
72908;PMS5003;61051;62.624;17.950;2022-08-19T12:02:33;25;20;
72908;PMS5003;61051;62.624;17.950;2022-08-19T12:05:01;14;13;
72908;PMS5003;61051;62.624;17.950;2022-08-19T12:07:30;21;21;
72908;PMS5003;61051;62.624;17.950;2022-08-19T12:10:00;19;16;
72908;PMS5003;61051;62.624;17.950;2022-08-19T12:12:28;17;16;
72908;PMS5003;61051;62.624;17.950;2022-08-19T12:14:57;19;17;
72908;PMS5003;61051;62.624;17.950;2022-08-19T12:17:26;17;16;
72908;PMS5003;61051;62.624;17.950;2022-08-19T12:19:55;15;14;
72908;PMS5003;61051;62.624;17.950;2022-08-19T12:22:23;17;14;
72908;PMS5003;61051;62.624;17.950;2022-08-19T12:24:52;22;21;
72908;PMS5003;61051;62.624;17.950;2022-08-19T12:27:21;24;24;
72908;PMS5003;61051;62.624;17.950;2022-08-19T12:29:49;17;16;
72908;PMS5003;61051;62.624;17.950;2022-08-19T12:32:19;20;20;
72908;PMS5003;61051;62.624;17.950;2022-08-19T12:34:47;15;14;
72908;PMS5003;61051;62.624;17.950;2022-08-19T12:37:15;15;12;
72908;PMS5003;61051;62.624;17.950;2022-08-19T12:39:43;21;17;
72908;PMS5003;61051;62.624;17.950;2022-08-19T12:42:12;13;13;
72908;PMS5003;61051;62.624;17.950;2022-08-19T12:44:42;22;19;
72908;PMS5003;61051;62.624;17.950;2022-08-19T12:47:12;23;19;
72908;PMS5003;61051;62.624;17.950;2022-08-19T12:49:41;23;20;
72908;PMS5003;61051;62.624;17.950;2022-08-19T12:52:10;24;20;
72908;PMS5003;61051;62.624;17.950;2022-08-19T12:54:40;19;19;
72908;PMS5003;61051;62.624;17.950;2022-08-19T12:57:08;19;17;
72908;PMS5003;61051;62.624;17.950;2022-08-19T12:59:38;21;18;
72908;PMS5003;61051;62.624;17.950;2022-08-19T13:02:07;23;20;
72908;PMS5003;61051;62.624;17.950;2022-08-19T13:04:36;24;20;
72908;PMS5003;61051;62.624;17.950;2022-08-19T13:07:04;22;20;
72908;PMS5003;61051;62.624;17.950;2022-08-19T13:09:33;23;20;
72908;PMS5003;61051;62.624;17.950;2022-08-19T13:12:01;23;20;
72908;PMS5003;61051;62.624;17.950;2022-08-19T13:14:30;20;16;
72908;PMS5003;61051;62.624;17.950;2022-08-19T13:17:00;23;22;
72908;PMS5003;61051;62.624;17.950;2022-08-19T13:19:28;18;17;
72908;PMS5003;61051;62.624;17.950;2022-08-19T13:21:57;29;26;
72908;PMS5003;61051;62.624;17.950;2022-08-19T13:24:26;25;22;
72908;PMS5003;61051;62.624;17.950;2022-08-19T13:26:54;19;17;
72908;PMS5003;61051;62.624;17.950;2022-08-19T13:29:23;23;21;
72908;PMS5003;61051;62.624;17.950;2022-08-19T13:31:52;22;22;
72908;PMS5003;61051;62.624;17.950;2022-08-19T13:34:25;17;17;
72908;PMS5003;61051;62.624;17.950;2022-08-19T13:36:56;21;19;
72908;PMS5003;61051;62.624;17.950;2022-08-19T13:39:25;27;22;
72908;PMS5003;61051;62.624;17.950;2022-08-19T13:41:55;31;25;
72908;PMS5003;61051;62.624;17.950;2022-08-19T13:44:24;22;20;
72908;PMS5003;61051;62.624;17.950;2022-08-19T13:46:52;23;21;
72908;PMS5003;61051;62.624;17.950;2022-08-19T13:49:22;21;20;
72908;PMS5003;61051;62.624;17.950;2022-08-19T13:51:51;23;22;
72908;PMS5003;61051;62.624;17.950;2022-08-19T13:54:20;29;25;
72908;PMS5003;61051;62.624;17.950;2022-08-19T13:56:48;29;28;
72908;PMS5003;61051;62.624;17.950;2022-08-19T13:59:16;19;19;
72908;PMS5003;61051;62.624;17.950;2022-08-19T14:01:44;25;22;
72908;PMS5003;61051;62.624;17.950;2022-08-19T14:04:13;24;22;
72908;PMS5003;61051;62.624;17.950;2022-08-19T14:06:41;30;25;
72908;PMS5003;61051;62.624;17.950;2022-08-19T14:09:10;29;26;
72908;PMS5003;61051;62.624;17.950;2022-08-19T14:11:39;27;23;
72908;PMS5003;61051;62.624;17.950;2022-08-19T14:14:07;28;28;
72908;PMS5003;61051;62.624;17.950;2022-08-19T14:16:35;31;28;
72908;PMS5003;61051;62.624;17.950;2022-08-19T14:19:04;27;25;
72908;PMS5003;61051;62.624;17.950;2022-08-19T14:21:32;41;34;
72908;PMS5003;61051;62.624;17.950;2022-08-19T14:24:02;33;30;
72908;PMS5003;61051;62.624;17.950;2022-08-19T14:26:31;36;32;
72908;PMS5003;61051;62.624;17.950;2022-08-19T14:28:59;29;27;
72908;PMS5003;61051;62.624;17.950;2022-08-19T14:31:28;33;28;
72908;PMS5003;61051;62.624;17.950;2022-08-19T14:33:56;32;25;
72908;PMS5003;61051;62.624;17.950;2022-08-19T14:36:26;36;29;
72908;PMS5003;61051;62.624;17.950;2022-08-19T14:38:54;36;30;
72908;PMS5003;61051;62.624;17.950;2022-08-19T14:41:23;30;29;
72908;PMS5003;61051;62.624;17.950;2022-08-19T14:43:52;31;28;
72908;PMS5003;61051;62.624;17.950;2022-08-19T14:46:25;28;25;
72908;PMS5003;61051;62.624;17.950;2022-08-19T14:48:56;30;27;
72908;PMS5003;61051;62.624;17.950;2022-08-19T14:51:25;28;26;
72908;PMS5003;61051;62.624;17.950;2022-08-19T14:53:54;33;30;
72908;PMS5003;61051;62.624;17.950;2022-08-19T14:56:24;28;27;
72908;PMS5003;61051;62.624;17.950;2022-08-19T14:58:55;29;25;
72908;PMS5003;61051;62.624;17.950;2022-08-19T15:01:24;36;32;
72908;PMS5003;61051;62.624;17.950;2022-08-19T15:03:53;31;31;
72908;PMS5003;61051;62.624;17.950;2022-08-19T15:06:23;26;25;
72908;PMS5003;61051;62.624;17.950;2022-08-19T15:08:52;25;25;
72908;PMS5003;61051;62.624;17.950;2022-08-19T15:11:23;25;20;
72908;PMS5003;61051;62.624;17.950;2022-08-19T15:13:54;26;23;
72908;PMS5003;61051;62.624;17.950;2022-08-19T15:16:23;30;29;
72908;PMS5003;61051;62.624;17.950;2022-08-19T15:18:53;33;29;
72908;PMS5003;61051;62.624;17.950;2022-08-19T15:21:23;38;28;
72908;PMS5003;61051;62.624;17.950;2022-08-19T15:23:54;36;33;
72908;PMS5003;61051;62.624;17.950;2022-08-19T15:26:24;28;27;
72908;PMS5003;61051;62.624;17.950;2022-08-19T15:28:55;28;26;
72908;PMS5003;61051;62.624;17.950;2022-08-19T15:31:24;28;23;
72908;PMS5003;61051;62.624;17.950;2022-08-19T15:33:53;27;25;
72908;PMS5003;61051;62.624;17.950;2022-08-19T15:36:23;21;21;
72908;PMS5003;61051;62.624;17.950;2022-08-19T15:38:53;28;24;
72908;PMS5003;61051;62.624;17.950;2022-08-19T15:41:23;26;25;
72908;PMS5003;61051;62.624;17.950;2022-08-19T15:43:57;28;25;
72908;PMS5003;61051;62.624;17.950;2022-08-19T15:46:28;29;25;
72908;PMS5003;61051;62.624;17.950;2022-08-19T15:48:59;28;25;
72908;PMS5003;61051;62.624;17.950;2022-08-19T15:51:28;30;26;
72908;PMS5003;61051;62.624;17.950;2022-08-19T15:53:58;29;26;
72908;PMS5003;61051;62.624;17.950;2022-08-19T15:56:27;27;26;
72908;PMS5003;61051;62.624;17.950;2022-08-19T15:58:55;29;26;
72908;PMS5003;61051;62.624;17.950;2022-08-19T16:03:17;40;35;
72908;PMS5003;61051;62.624;17.950;2022-08-19T16:05:46;31;27;
72908;PMS5003;61051;62.624;17.950;2022-08-19T16:08:14;31;27;
72908;PMS5003;61051;62.624;17.950;2022-08-19T16:10:42;29;26;
72908;PMS5003;61051;62.624;17.950;2022-08-19T16:13:11;28;23;
72908;PMS5003;61051;62.624;17.950;2022-08-19T16:15:39;24;24;
72908;PMS5003;61051;62.624;17.950;2022-08-19T16:18:07;28;27;
72908;PMS5003;61051;62.624;17.950;2022-08-19T16:20:36;27;27;
72908;PMS5003;61051;62.624;17.950;2022-08-19T16:23:05;25;23;
72908;PMS5003;61051;62.624;17.950;2022-08-19T16:25:33;27;26;
72908;PMS5003;61051;62.624;17.950;2022-08-19T16:28:02;23;23;